createdAt,value
2019-05-01T00:00:17.812Z,18.80
2019-05-01T00:03:14.764Z,18.80
2019-05-01T00:05:49.355Z,18.80
2019-05-01T00:08:21.815Z,18.80
2019-05-01T00:10:53.961Z,18.80
2019-05-01T00:13:26.394Z,18.70
2019-05-01T00:15:59.337Z,18.70
2019-05-01T00:18:32.014Z,18.70
2019-05-01T00:21:04.514Z,18.70
2019-05-01T00:23:37.329Z,18.80
2019-05-01T00:26:10.104Z,18.70
2019-05-01T00:28:42.870Z,18.80
2019-05-01T00:31:15.494Z,18.70
2019-05-01T00:33:47.868Z,18.70
2019-05-01T00:36:20.332Z,18.70
2019-05-01T00:38:52.816Z,18.70
2019-05-01T00:41:24.880Z,18.70
2019-05-01T00:43:57.396Z,18.70
2019-05-01T00:46:29.922Z,18.70
2019-05-01T00:49:02.426Z,18.70
2019-05-01T00:51:34.892Z,18.70
2019-05-01T00:54:06.907Z,18.70
2019-05-01T00:56:52.815Z,18.70
2019-05-01T00:59:43.530Z,18.70
2019-05-01T01:02:38.436Z,18.70
2019-05-01T01:05:10.825Z,18.70
2019-05-01T01:07:42.988Z,18.70
2019-05-01T01:10:15.389Z,18.70
2019-05-01T01:12:47.853Z,18.70
2019-05-01T01:15:20.002Z,18.70
2019-05-01T01:17:52.103Z,18.80
2019-05-01T01:20:24.283Z,18.70
2019-05-01T01:22:56.848Z,18.70
2019-05-01T01:25:29.011Z,18.80
2019-05-01T01:28:01.317Z,18.80
2019-05-01T01:30:33.830Z,18.80
2019-05-01T01:33:05.852Z,18.70
2019-05-01T01:35:38.323Z,18.80
2019-05-01T01:38:10.859Z,18.80
2019-05-01T01:40:42.828Z,18.70
2019-05-01T01:43:36.425Z,18.80
2019-05-01T01:46:10.349Z,18.80
2019-05-01T01:48:43.333Z,18.80
2019-05-01T01:51:15.899Z,18.80
2019-05-01T01:53:48.330Z,18.80
2019-05-01T01:56:20.585Z,18.80
2019-05-01T01:58:52.883Z,18.80
2019-05-01T02:01:42.597Z,18.80
2019-05-01T02:04:24.833Z,18.80
2019-05-01T02:06:57.060Z,18.80
2019-05-01T02:09:29.364Z,18.80
2019-05-01T02:12:01.906Z,18.80
2019-05-01T02:14:34.525Z,18.80
2019-05-01T02:17:06.902Z,18.80
2019-05-01T02:19:39.029Z,18.80
2019-05-01T02:22:11.769Z,18.80
2019-05-01T02:24:43.273Z,18.80
2019-05-01T02:27:21.114Z,18.90
2019-05-01T02:29:56.843Z,18.90
2019-05-01T02:32:30.349Z,18.90
2019-05-01T02:35:02.857Z,18.90
2019-05-01T02:37:35.807Z,18.90
2019-05-01T02:40:52.857Z,18.90
2019-05-01T02:43:25.321Z,18.90
2019-05-01T02:45:58.880Z,18.90
2019-05-01T02:48:32.987Z,19.00
2019-05-01T02:51:05.842Z,18.90
2019-05-01T02:53:39.872Z,18.90
2019-05-01T02:56:35.692Z,19.00
2019-05-01T02:59:08.801Z,19.00
2019-05-01T03:01:47.320Z,19.00
2019-05-01T03:04:14.807Z,19.00
2019-05-01T03:06:46.845Z,19.00
2019-05-01T03:09:19.803Z,19.10
2019-05-01T03:11:52.046Z,19.10
2019-05-01T03:14:24.494Z,19.10
2019-05-01T03:16:57.528Z,19.10
2019-05-01T03:19:55.096Z,19.10
2019-05-01T03:22:38.770Z,19.10
2019-05-01T03:25:10.889Z,19.10
2019-05-01T03:27:43.367Z,19.10
2019-05-01T03:30:16.329Z,19.10
2019-05-01T03:32:48.875Z,19.10
2019-05-01T03:35:21.000Z,19.10
2019-05-01T03:37:53.878Z,19.10
2019-05-01T03:40:25.994Z,19.10
2019-05-01T03:42:58.277Z,19.10
2019-05-01T03:45:34.144Z,19.10
2019-05-01T03:48:04.914Z,19.10
2019-05-01T03:50:37.288Z,19.10
2019-05-01T03:53:09.894Z,19.10
2019-05-01T03:55:41.919Z,19.10
2019-05-01T03:58:13.988Z,19.10
2019-05-01T04:00:56.881Z,19.10
2019-05-01T04:03:33.420Z,19.10
2019-05-01T04:06:05.795Z,19.10
2019-05-01T04:08:38.325Z,19.10
2019-05-01T04:11:10.807Z,19.10
2019-05-01T04:13:43.854Z,19.10
2019-05-01T04:16:16.832Z,19.10
2019-05-01T04:18:49.317Z,19.10
2019-05-01T04:21:23.531Z,19.10
2019-05-01T04:23:55.843Z,19.10
2019-05-01T04:26:28.406Z,19.10
2019-05-01T04:29:19.534Z,19.10
2019-05-01T04:32:05.332Z,19.10
2019-05-01T04:35:05.501Z,19.10
2019-05-01T04:37:37.995Z,19.10
2019-05-01T04:40:10.243Z,19.10
2019-05-01T04:42:42.802Z,19.10
2019-05-01T04:45:14.871Z,19.10
2019-05-01T04:47:46.899Z,19.10
2019-05-01T04:50:18.900Z,19.10
2019-05-01T04:52:51.790Z,19.10
2019-05-01T04:55:23.923Z,19.10
2019-05-01T04:57:56.328Z,19.10
2019-05-01T05:00:28.894Z,19.10
2019-05-01T05:03:08.509Z,19.10
2019-05-01T05:05:41.328Z,19.10
2019-05-01T05:08:13.558Z,19.10
2019-05-01T05:10:46.329Z,19.10
2019-05-01T05:13:23.619Z,19.10
2019-05-01T05:16:26.663Z,19.10
2019-05-01T05:18:58.289Z,19.10
2019-05-01T05:21:30.574Z,19.10
2019-05-01T05:29:06.443Z,19.30
2019-05-01T05:31:39.325Z,19.30
2019-05-01T05:34:11.902Z,19.30
2019-05-01T05:36:44.329Z,19.30
2019-05-01T05:39:28.713Z,19.30
2019-05-01T05:41:59.709Z,19.30
2019-05-01T05:44:31.895Z,19.30
2019-05-01T05:47:04.351Z,19.20
2019-05-01T05:49:37.005Z,19.30
2019-05-01T05:52:33.512Z,19.30
2019-05-01T05:55:28.601Z,19.30
2019-05-01T05:58:06.416Z,19.30
2019-05-01T06:01:06.284Z,19.30
2019-05-01T06:03:57.904Z,19.30
2019-05-01T06:06:39.508Z,19.40
2019-05-01T06:09:14.244Z,19.40
2019-05-01T06:12:04.963Z,19.40
2019-05-01T06:14:56.315Z,19.40
2019-05-01T06:17:53.847Z,19.50
2019-05-01T06:20:41.783Z,19.50
2019-05-01T06:23:22.484Z,19.50
2019-05-01T06:26:00.009Z,19.50
2019-05-01T06:28:30.315Z,19.60
2019-05-01T06:31:22.980Z,19.60
2019-05-01T06:33:54.612Z,19.60
2019-05-01T06:36:25.805Z,19.60
2019-05-01T06:38:58.395Z,19.70
2019-05-01T06:41:40.810Z,19.70
2019-05-01T06:44:21.277Z,19.70
2019-05-01T06:47:11.689Z,19.70
2019-05-01T06:50:07.234Z,19.80
2019-05-01T06:52:40.837Z,19.80
2019-05-01T06:55:12.890Z,19.80
2019-05-01T06:57:45.677Z,19.80
2019-05-01T07:00:21.532Z,19.90
2019-05-01T07:02:54.417Z,19.90
2019-05-01T07:05:27.070Z,19.90
2019-05-01T07:07:59.842Z,19.90
2019-05-01T07:10:43.581Z,20.00
2019-05-01T07:13:06.604Z,20.00
2019-05-01T07:15:38.273Z,20.00
2019-05-01T07:18:11.573Z,20.00
2019-05-01T07:21:01.272Z,20.10
2019-05-01T07:23:33.884Z,20.10
2019-05-01T07:26:10.007Z,20.10
2019-05-01T07:28:43.714Z,20.10
2019-05-01T07:31:16.374Z,20.10
2019-05-01T07:33:51.168Z,20.20
2019-05-01T07:36:22.921Z,20.20
2019-05-01T07:38:55.451Z,20.20
2019-05-01T07:41:27.869Z,20.30
2019-05-01T07:44:30.054Z,20.30
2019-05-01T07:47:18.891Z,20.30
2019-05-01T07:50:04.695Z,20.30
2019-05-01T07:52:35.749Z,20.30
2019-05-01T07:55:13.035Z,20.40
2019-05-01T08:02:58.394Z,20.60
2019-05-01T08:05:30.872Z,20.60
2019-05-01T08:08:07.419Z,20.50
2019-05-01T08:15:40.455Z,20.60
2019-05-01T08:18:16.842Z,20.50
2019-05-01T08:20:54.585Z,20.40
2019-05-01T08:23:26.922Z,20.40
2019-05-01T08:26:03.987Z,20.30
2019-05-01T08:28:52.004Z,20.30
2019-05-01T08:31:37.829Z,20.30
2019-05-01T08:34:12.027Z,20.30
2019-05-01T08:36:47.323Z,20.30
2019-05-01T08:39:18.346Z,20.40
2019-05-01T08:41:50.837Z,20.30
2019-05-01T08:44:24.851Z,20.40
2019-05-01T08:47:14.678Z,20.40
2019-05-01T08:50:01.318Z,20.40
2019-05-01T08:52:33.878Z,20.40
2019-05-01T08:55:09.328Z,20.40
2019-05-01T08:57:40.811Z,20.50
2019-05-01T09:00:13.296Z,20.50
2019-05-01T09:02:45.302Z,20.50
2019-05-01T09:05:28.529Z,20.50
2019-05-01T09:07:55.428Z,20.60
2019-05-01T09:10:23.735Z,20.60
2019-05-01T09:12:54.565Z,20.60
2019-05-01T09:15:26.374Z,20.70
2019-05-01T09:17:58.305Z,20.70
2019-05-01T09:20:32.294Z,20.70
2019-05-01T09:23:03.829Z,20.70
2019-05-01T09:25:41.702Z,20.70
2019-05-01T09:28:19.305Z,20.70
2019-05-01T09:31:01.337Z,20.70
2019-05-01T09:33:32.048Z,20.70
2019-05-01T09:36:03.798Z,20.70
2019-05-01T09:38:35.766Z,20.70
2019-05-01T09:41:06.501Z,20.70
2019-05-01T09:43:38.778Z,20.70
2019-05-01T09:46:09.651Z,20.70
2019-05-01T09:48:40.549Z,20.80
2019-05-01T09:51:28.419Z,20.80
2019-05-01T09:54:09.704Z,20.80
2019-05-01T09:56:39.366Z,20.80
2019-05-01T10:01:56.921Z,20.80
2019-05-01T10:04:30.218Z,20.80
2019-05-01T10:07:03.892Z,20.80
2019-05-01T10:09:36.430Z,20.70
2019-05-01T10:12:11.466Z,20.70
2019-05-01T10:14:41.699Z,20.70
2019-05-01T10:17:13.564Z,20.70
2019-05-01T10:19:45.862Z,20.70
2019-05-01T10:22:18.033Z,20.70
2019-05-01T10:24:50.331Z,20.80
2019-05-01T10:27:25.785Z,20.80
2019-05-01T10:30:21.584Z,20.80
2019-05-01T10:32:59.609Z,20.80
2019-05-01T10:35:42.825Z,20.80
2019-05-01T10:38:11.926Z,20.80
2019-05-01T10:40:44.327Z,20.80
2019-05-01T10:43:16.811Z,20.80
2019-05-01T10:45:49.332Z,20.80
2019-05-01T10:51:05.314Z,20.90
2019-05-01T10:53:37.309Z,20.90
2019-05-01T10:56:09.310Z,20.90
2019-05-01T10:58:41.266Z,20.80
2019-05-01T11:01:19.414Z,20.90
2019-05-01T11:03:51.362Z,20.90
2019-05-01T11:06:23.371Z,20.90
2019-05-01T11:08:55.066Z,20.90
2019-05-01T11:11:26.779Z,20.90
2019-05-01T11:13:58.422Z,20.90
2019-05-01T11:16:30.061Z,20.90
2019-05-01T11:19:01.903Z,20.90
2019-05-01T11:21:34.026Z,20.90
2019-05-01T11:24:05.983Z,21.00
2019-05-01T11:26:37.774Z,20.90
2019-05-01T11:29:08.506Z,20.90
2019-05-01T11:32:11.535Z,20.90
2019-05-01T11:34:53.417Z,20.90
2019-05-01T11:37:35.748Z,20.90
2019-05-01T11:40:12.363Z,20.90
2019-05-01T11:42:44.023Z,20.80
2019-05-01T11:45:15.774Z,20.80
2019-05-01T11:47:46.481Z,20.80
2019-05-01T11:50:18.626Z,20.80
2019-05-01T11:52:50.737Z,20.80
2019-05-01T11:55:21.464Z,20.80
2019-05-01T11:57:53.309Z,20.90
2019-05-01T12:00:24.883Z,20.80
2019-05-01T12:02:56.359Z,20.90
2019-05-01T12:05:28.323Z,20.90
2019-05-01T12:08:00.622Z,20.80
2019-05-01T12:10:32.739Z,20.80
2019-05-01T12:13:03.492Z,20.80
2019-05-01T12:15:35.301Z,20.90
2019-05-01T12:18:06.911Z,20.80
2019-05-01T12:20:38.781Z,20.80
2019-05-01T12:23:09.632Z,20.80
2019-05-01T12:25:41.361Z,20.80
2019-05-01T12:28:13.629Z,20.80
2019-05-01T12:30:45.667Z,20.80
2019-05-01T12:33:17.359Z,20.80
2019-05-01T12:35:50.761Z,20.80
2019-05-01T12:38:21.684Z,20.80
2019-05-01T12:41:10.331Z,20.80
2019-05-01T12:43:42.605Z,20.80
2019-05-01T12:46:33.349Z,20.80
2019-05-01T12:49:05.357Z,20.80
2019-05-01T12:51:38.289Z,20.80
2019-05-01T12:54:19.356Z,20.80
2019-05-01T12:56:54.863Z,20.80
2019-05-01T12:59:26.689Z,20.80
2019-05-01T13:01:57.463Z,20.80
2019-05-01T13:04:29.300Z,20.80
2019-05-01T13:07:00.981Z,20.80
2019-05-01T13:09:32.717Z,20.80
2019-05-01T13:12:03.446Z,20.80
2019-05-01T13:14:35.341Z,20.80
2019-05-01T13:17:07.058Z,20.80
2019-05-01T13:19:38.741Z,20.80
2019-05-01T13:22:09.452Z,20.80
2019-05-01T13:24:51.055Z,20.70
2019-05-01T13:27:28.642Z,20.80
2019-05-01T13:30:16.798Z,20.70
2019-05-01T13:32:50.845Z,20.70
2019-05-01T13:35:22.577Z,20.70
2019-05-01T13:37:54.369Z,20.70
2019-05-01T13:40:26.058Z,20.70
2019-05-01T13:42:57.769Z,20.70
2019-05-01T13:45:28.472Z,20.70
2019-05-01T13:48:00.480Z,20.70
2019-05-01T13:50:32.036Z,20.70
2019-05-01T13:53:03.802Z,20.70
2019-05-01T13:55:35.779Z,20.60
2019-05-01T13:58:07.781Z,20.70
2019-05-01T14:00:38.518Z,20.60
2019-05-01T14:03:10.260Z,20.60
2019-05-01T14:05:41.831Z,20.60
2019-05-01T14:08:13.597Z,20.70
2019-05-01T14:10:45.302Z,20.80
2019-05-01T14:13:17.298Z,20.80
2019-05-01T14:15:49.033Z,20.90
2019-05-01T14:18:20.765Z,21.00
2019-05-01T14:21:10.002Z,21.00
2019-05-01T14:23:59.369Z,21.10
2019-05-01T14:26:32.311Z,21.10
2019-05-01T14:29:04.032Z,21.10
2019-05-01T14:31:35.736Z,21.10
2019-05-01T14:34:06.644Z,21.10
2019-05-01T14:36:38.345Z,21.10
2019-05-01T14:39:10.851Z,21.10
2019-05-01T14:41:42.865Z,21.10
2019-05-01T14:44:14.798Z,21.10
2019-05-01T14:46:47.347Z,21.10
2019-05-01T14:49:19.871Z,21.00
2019-05-01T14:51:52.316Z,21.00
2019-05-01T14:54:25.089Z,21.00
2019-05-01T14:56:57.862Z,21.00
2019-05-01T14:59:29.882Z,21.00
2019-05-01T15:02:01.838Z,21.00
2019-05-01T15:04:33.831Z,21.00
2019-05-01T15:07:05.823Z,21.00
2019-05-01T15:09:37.867Z,21.00
2019-05-01T15:12:10.539Z,21.00
2019-05-01T15:14:59.091Z,20.90
2019-05-01T15:17:43.844Z,20.90
2019-05-01T15:20:16.065Z,20.90
2019-05-01T15:22:48.453Z,20.90
2019-05-01T15:25:20.846Z,20.90
2019-05-01T15:27:52.846Z,20.90
2019-05-01T15:30:25.016Z,20.90
2019-05-01T15:32:57.039Z,21.00
2019-05-01T15:35:29.275Z,20.90
2019-05-01T15:38:01.852Z,20.90
2019-05-01T15:40:58.548Z,21.00
2019-05-01T15:43:35.813Z,20.90
2019-05-01T15:46:08.104Z,20.90
2019-05-01T15:48:40.440Z,20.90
2019-05-01T15:51:13.321Z,20.90
2019-05-01T15:53:45.821Z,20.90
2019-05-01T15:56:17.850Z,20.90
2019-05-01T15:58:49.865Z,20.90
2019-05-01T16:01:21.878Z,20.90
2019-05-01T16:03:53.857Z,20.90
2019-05-01T16:06:25.963Z,20.90
2019-05-01T16:08:58.535Z,20.80
2019-05-01T16:11:49.315Z,20.90
2019-05-01T16:14:21.840Z,20.90
2019-05-01T16:16:54.002Z,20.80
2019-05-01T16:19:26.089Z,20.90
2019-05-01T16:21:58.847Z,20.90
2019-05-01T16:24:30.835Z,20.90
2019-05-01T16:27:03.837Z,20.90
2019-05-01T16:29:35.873Z,20.90
2019-05-01T16:32:07.915Z,20.90
2019-05-01T16:34:40.442Z,20.90
2019-05-01T16:37:13.328Z,20.90
2019-05-01T16:40:01.078Z,20.90
2019-05-01T16:42:43.449Z,20.90
2019-05-01T16:45:15.914Z,20.90
2019-05-01T16:47:48.330Z,20.90
2019-05-01T16:50:20.792Z,20.90
2019-05-01T16:52:53.732Z,20.90
2019-05-01T16:55:25.869Z,20.90
2019-05-01T16:57:57.849Z,20.90
2019-05-01T17:01:00.423Z,20.90
2019-05-01T17:03:50.462Z,20.90
2019-05-01T17:06:41.015Z,20.90
2019-05-01T17:09:31.325Z,20.90
2019-05-01T17:12:03.845Z,20.90
2019-05-01T17:14:35.878Z,20.90
2019-05-01T17:17:11.367Z,20.90
2019-05-01T17:19:44.346Z,20.90
2019-05-01T17:22:17.323Z,20.90
2019-05-01T17:24:49.867Z,20.90
2019-05-01T17:27:22.100Z,20.90
2019-05-01T17:29:54.798Z,20.90
2019-05-01T17:32:27.057Z,20.90
2019-05-01T17:35:01.816Z,20.90
2019-05-01T17:37:33.363Z,20.90
2019-05-01T17:40:06.134Z,20.90
2019-05-01T17:42:39.328Z,20.90
2019-05-01T17:45:11.818Z,20.90
2019-05-01T17:47:43.920Z,20.90
2019-05-01T17:50:16.538Z,20.90
2019-05-01T17:52:49.422Z,20.90
2019-05-01T17:55:21.824Z,20.90
2019-05-01T17:57:54.332Z,20.80
2019-05-01T18:00:44.332Z,20.90
2019-05-01T18:03:47.699Z,20.80
2019-05-01T18:06:23.443Z,20.80
2019-05-01T18:09:02.894Z,20.80
2019-05-01T18:11:30.506Z,20.80
2019-05-01T18:14:05.565Z,20.70
2019-05-01T18:16:36.857Z,20.80
2019-05-01T18:19:10.724Z,20.70
2019-05-01T18:21:46.657Z,20.70
2019-05-01T18:24:39.022Z,20.70
2019-05-01T18:27:32.520Z,20.70
2019-05-01T18:30:08.417Z,20.70
2019-05-01T18:32:47.520Z,20.70
2019-05-01T18:35:19.107Z,20.70
2019-05-01T18:38:00.565Z,20.70
2019-05-01T18:40:37.325Z,20.70
2019-05-01T18:43:10.110Z,20.60
2019-05-01T18:45:58.415Z,20.60
2019-05-01T18:48:30.864Z,20.60
2019-05-01T18:51:03.334Z,20.60
2019-05-01T18:53:35.885Z,20.60
2019-05-01T18:56:07.923Z,20.60
2019-05-01T18:58:39.861Z,20.60
2019-05-01T19:01:12.326Z,20.60
2019-05-01T19:03:45.833Z,20.60
2019-05-01T19:06:19.327Z,20.60
2019-05-01T19:08:51.877Z,20.50
2019-05-01T19:11:24.430Z,20.50
2019-05-01T19:13:57.027Z,20.60
2019-05-01T19:16:29.452Z,20.50
2019-05-01T19:19:03.961Z,20.50
2019-05-01T19:21:36.390Z,20.50
2019-05-01T19:24:08.871Z,20.50
2019-05-01T19:26:42.604Z,20.40
2019-05-01T19:29:14.887Z,20.50
2019-05-01T19:31:46.894Z,20.40
2019-05-01T19:34:18.917Z,20.40
2019-05-01T19:36:51.623Z,20.40
2019-05-01T19:39:23.789Z,20.40
2019-05-01T19:41:56.029Z,20.40
2019-05-01T19:44:28.412Z,20.40
2019-05-01T19:47:00.928Z,20.40
2019-05-01T19:52:14.862Z,20.40
2019-05-01T19:54:46.868Z,20.40
2019-05-01T19:57:19.283Z,20.40
2019-05-01T19:59:51.926Z,20.30
2019-05-01T20:02:24.167Z,20.30
2019-05-01T20:04:56.883Z,20.30
2019-05-01T20:07:28.912Z,20.30
2019-05-01T20:10:00.906Z,20.30
2019-05-01T20:12:33.333Z,20.30
2019-05-01T20:15:06.333Z,20.20
2019-05-01T20:17:38.858Z,20.20
2019-05-01T20:20:11.058Z,20.20
2019-05-01T20:22:42.930Z,20.20
2019-05-01T20:25:19.380Z,20.20
2019-05-01T20:27:52.962Z,20.20
2019-05-01T20:30:22.353Z,20.20
2019-05-01T20:32:58.141Z,20.20
2019-05-01T20:35:30.236Z,20.20
2019-05-01T20:47:14.728Z,20.10
2019-05-01T20:49:45.954Z,20.10
2019-05-01T20:52:18.581Z,20.10
2019-05-01T20:54:50.891Z,20.10
2019-05-01T20:57:29.010Z,20.10
2019-05-01T21:00:01.355Z,20.10
2019-05-01T21:02:33.866Z,20.10
2019-05-01T21:05:23.748Z,20.10
2019-05-01T21:08:01.799Z,20.10
2019-05-01T21:10:49.982Z,20.00
2019-05-01T21:13:11.837Z,20.00
2019-05-01T21:15:47.113Z,20.00
2019-05-01T21:18:20.820Z,20.00
2019-05-01T21:20:54.052Z,20.00
2019-05-01T21:23:26.289Z,20.00
2019-05-01T21:25:58.595Z,20.00
2019-05-01T21:28:30.873Z,20.00
2019-05-01T21:31:03.856Z,19.90
2019-05-01T21:33:40.785Z,19.90
2019-05-01T21:38:42.895Z,19.90
2019-05-01T21:41:15.060Z,19.90
2019-05-01T21:43:48.906Z,19.90
2019-05-01T21:46:22.739Z,19.90
2019-05-01T21:48:55.296Z,19.90
2019-05-01T21:51:27.838Z,19.90
2019-05-01T21:53:59.878Z,19.80
2019-05-01T21:56:32.585Z,19.80
2019-05-01T21:59:08.427Z,19.80
2019-05-01T22:01:37.755Z,19.80
2019-05-01T22:04:09.712Z,19.80
2019-05-01T22:06:41.753Z,19.80
2019-05-01T22:09:20.357Z,19.80
2019-05-01T22:11:52.819Z,19.80
2019-05-01T22:14:42.704Z,19.80
2019-05-01T22:17:20.977Z,19.80
2019-05-01T22:19:53.044Z,19.80
2019-05-01T22:22:38.690Z,19.80
2019-05-01T22:25:18.054Z,19.80
2019-05-01T22:27:55.363Z,19.80
2019-05-01T22:30:42.391Z,19.80
2019-05-01T22:33:15.848Z,19.80
2019-05-01T22:35:50.773Z,19.80
2019-05-01T22:38:22.378Z,19.80
2019-05-01T22:41:06.705Z,19.80
2019-05-01T22:43:38.097Z,19.80
2019-05-01T22:46:15.713Z,19.80
2019-05-01T22:48:47.136Z,19.80
2019-05-01T22:51:24.455Z,19.80
2019-05-01T22:53:59.888Z,19.80
2019-05-01T22:56:32.348Z,19.80
2019-05-01T22:59:04.848Z,19.80
2019-05-01T23:01:36.895Z,19.80
2019-05-01T23:04:12.157Z,19.80
2019-05-01T23:06:43.858Z,19.80
2019-05-01T23:09:17.616Z,19.80
2019-05-01T23:11:49.906Z,19.80
2019-05-01T23:14:23.337Z,19.80
2019-05-01T23:17:20.687Z,19.70
2019-05-01T23:19:52.899Z,19.70
2019-05-01T23:22:24.880Z,19.70
2019-05-01T23:24:56.855Z,19.70
2019-05-01T23:27:29.679Z,19.70
2019-05-01T23:30:01.780Z,19.70
2019-05-01T23:32:33.283Z,19.70
2019-05-01T23:35:06.084Z,19.70
2019-05-01T23:37:38.360Z,19.70
2019-05-01T23:40:15.401Z,19.70
2019-05-01T23:42:52.454Z,19.70
2019-05-01T23:45:19.407Z,19.70
2019-05-01T23:47:51.899Z,19.70
2019-05-01T23:50:23.806Z,19.60
2019-05-01T23:52:56.443Z,19.60
2019-05-01T23:55:28.825Z,19.60
2019-05-01T23:58:00.867Z,19.60
